Finchville, KY (40022)

12:47 AM EST on November 28, 2014 (GMT -0500)
Cloverbrook Farms | Change Station
CLOSE
Current Station
Personal Weather Station
Location: Shelbyville, KY
Elevation: 794 ft
Nearby Weather Stations

Elev 794 ft 38.19 °N, 85.22 °W | Updated 44 seconds ago

Overcast
Overcast
28.2 °F
Feels Like 22 °F
N
5.8
Wind Variable Wind from NW
Gusts 8.3 mph

Today
High -- | Low -- °F
--% Chance of Precip.
Yesterday
High -- | Low -- °F
Precip. -- in
7:35 AM 5:22 PM
Waxing Crescent, 37% visible
Pressure 30.45 in
Visibility 10.0 miles
Clouds Few 1700 ft
Mostly Cloudy 2500 ft
Overcast 3100 ft
Windchill 22 °F
Dew Point 14 °F
Humidity 54%
Rainfall 0.00 in
Snow Depth Not available.
UV 0 out of 12
Pollen .10 out of 12
Air Quality Not available.
Flu Activity Not available.
METAR KLOU 280453Z 25005KT 10SM FEW017 BKN025 OVC031 M02/M06 A3043 RMK AO2 SLP311 T10171056 400281017

More Conditions Fewer Conditions

Pressure 30.45 in
Visibility 10.0 miles
Clouds Few 1700 ft
Mostly Cloudy 2500 ft
Overcast 3100 ft
Windchill 22 °F
Dew Point 14 °F
Humidity 54%
Rainfall 0.00 in
Snow Depth Not available.
UV 0 out of 12
Pollen .10 out of 12
Air Quality Not available.
Flu Activity Not available.
METAR KLOU 280453Z 25005KT 10SM FEW017 BKN025 OVC031 M02/M06 A3043 RMK AO2 SLP311 T10171056 400281017

More Conditions Fewer Conditions

10-Day Weather Forecast

Almanac

Astronomy

Nov. 28, 2014 Rise Set
Actual Time
Civil Twilight
Nautical Twilight
Astronomical Twilight
Moon
Length of Visible Light
Length of Day
Tomorrow will be .
, % of the Moon is Illuminated

Today's Extremes

State Highs State Lows

Community

WunderPhotos

Upload Photos

1,774,195 photos uploaded!

WunderBlogs® & News

Nearby

Air Quality

  Air Quality AQ Index Pollutant
Not available.

Snow Depth

Station Depth Elevation

Earthquake Activity

City Distance Mag. Time & Date
Minimum magnitude displayed is 2.5.

Coastal Water Temperatures

Place Temperature

Nearby Weather Stations